Arlee, MT (59821)

10:59 PM MDT on August 19, 2017 (GMT -0600)
Thisledome Family Forest | | Change Station

Elev 3783 ft 47.14 °N, 114.12 °W | Updated 26 seconds ago

Clear
Clear
55.0 °F
Feels Like 55.0 °F
N
3.2
Wind Variable Wind from West

Today
High -- | Low -- °F
--% Chance of Precip.
Yesterday
High -- | Low -- °F
Precip. -- in
Pressure 30.01 in
Visibility 10.0 miles
Clouds Clear
Dew Point 40 °F
Humidity 57%
Rainfall 0.00 in
Snow Depth Not available.
6:38 AM 8:39 PM
Waning Crescent, 3% visible
METAR KMSO 200453Z AUTO 35007KT 10SM CLR 17/04 A3006 RMK AO2 SLP162 T01670039
Pressure 30.01 in
Visibility 10.0 miles
Clouds Clear
Dew Point 40 °F
Humidity 57%
Rainfall 0.00 in
Snow Depth Not available.
6:38 AM 8:39 PM
Waning Crescent, 3% visible
METAR KMSO 200453Z AUTO 35007KT 10SM CLR 17/04 A3006 RMK AO2 SLP162 T01670039

Get Severe Weather Alerts

Thanks for signing up!

Be on the lookout for a verification email in your inbox.

You'll start receiving the daily forecast at 6 AM.

×

10-Day Weather Forecast

Almanac

Astronomy

Aug. 19, 2017 Rise Set
Actual Time
Civil Twilight
Nautical Twilight
Astronomical Twilight
Moon
Length of Visible Light
Length of Day
Tomorrow will be .
, % of the Moon is Illuminated

Today's Extremes

State Highs State Lows

Community

WunderPhotos

Category 6

Welcome to Category 6. This is the collective home for Weather Underground's featured writeups by Dr. Jeff Masters (right), Bob Henson (left), Chris Burt, and other regular contributors.

Nearby

Air Quality

  Air Quality AQ Index Pollutant
Not available.

Snow Depth

Station Depth Elevation

Earthquake Activity

City Distance Mag. Time & Date
Minimum magnitude displayed is 2.5.

Coastal Water Temperatures

Place Temperature

Stations

Nearby Weather Stations

Station Location Temp. Windchill Dew Point Humidity Wind Precip. Elev Updated Type
                   

Watches & Warnings

There are currently no watches in effect.